Time;durP1;ratioP1;P1;durP2;ratioP2;P2;SDS_P1;SDS_P2;PMS_P1;PMS_P2;Temp;Humidity;BMP_temperature;BMP_pressure;BME280_temperature;BME280_humidity;BME280_pressure;Samples;Min_cycle;Max_cycle;Signal;HPM_P1;HPM_P2
2022/05/11 00:00:42;;;;;;;18.00;11.77;;;18.50;81.20;;;;;;5082970;28;20198;-70
2022/05/11 00:03:09;;;;;;;18.47;11.30;;;18.50;81.30;;;;;;5079338;28;20222;-70
2022/05/11 00:05:36;;;;;;;13.37;10.60;;;18.40;81.30;;;;;;5105354;28;20291;-70
2022/05/11 00:08:04;;;;;;;17.83;10.80;;;18.40;81.60;;;;;;5075865;28;20892;-70
2022/05/11 00:10:32;;;;;;;17.13;10.97;;;18.40;81.80;;;;;;5084147;28;20224;-70
2022/05/11 00:12:59;;;;;;;17.47;11.13;;;18.40;82.10;;;;;;5079034;28;20221;-70
2022/05/11 00:15:28;;;;;;;16.20;10.63;;;18.30;82.30;;;;;;5064854;28;20203;-70
2022/05/11 00:17:55;;;;;;;16.67;11.50;;;18.30;82.50;;;;;;5075799;28;20288;-70
2022/05/11 00:20:23;;;;;;;16.70;12.13;;;18.30;82.60;;;;;;5066308;28;20220;-70
2022/05/11 00:22:58;;;;;;;15.30;11.37;;;18.20;82.70;;;;;;5058503;28;20239;-70
2022/05/11 00:25:27;;;;;;;16.63;11.53;;;18.20;82.90;;;;;;5070166;28;20205;-70
2022/05/11 00:27:56;;;;;;;12.33;11.10;;;18.20;83.00;;;;;;5061803;28;20699;-70
2022/05/11 00:30:24;;;;;;;15.20;12.20;;;18.20;83.10;;;;;;5076955;28;20654;-70
2022/05/11 00:32:53;;;;;;;16.13;11.00;;;18.10;83.30;;;;;;5090414;28;20191;-70
2022/05/11 00:35:21;;;;;;;14.77;11.67;;;18.10;83.40;;;;;;5086882;28;20201;-70
2022/05/11 00:37:48;;;;;;;17.23;11.10;;;18.10;83.40;;;;;;5080409;28;20625;-70
2022/05/11 00:40:17;;;;;;;19.00;11.57;;;18.10;83.40;;;;;;5086067;28;20212;-70
2022/05/11 00:42:44;;;;;;;13.63;11.27;;;18.00;83.40;;;;;;5093059;28;20220;-70
2022/05/11 00:45:12;;;;;;;14.00;11.60;;;18.00;83.60;;;;;;5076611;28;20205;-70
2022/05/11 00:47:56;;;;;;;13.57;11.40;;;18.00;83.70;;;;;;5081593;28;20232;-70
2022/05/11 00:50:30;;;;;;;19.63;11.53;;;18.00;83.90;;;;;;5086680;28;20541;-70
2022/05/11 00:53:09;;;;;;;18.03;10.97;;;18.00;83.90;;;;;;5067329;28;20245;-71
2022/05/11 00:55:58;;;;;;;19.87;11.27;;;17.90;83.70;;;;;;5086075;28;20210;-70
2022/05/11 00:58:33;;;;;;;13.17;10.30;;;17.90;83.60;;;;;;5097225;28;20223;-70
2022/05/11 01:01:00;;;;;;;12.00;10.33;;;17.90;83.60;;;;;;5086788;28;20205;-70
2022/05/11 01:03:42;;;;;;;11.27;10.10;;;17.90;83.60;;;;;;5091947;28;20198;-70
2022/05/11 01:06:12;;;;;;;14.73;11.13;;;17.90;83.60;;;;;;5103093;28;20209;-70
2022/05/11 01:08:39;;;;;;;15.50;10.83;;;17.90;83.50;;;;;;5087850;28;20611;-70
2022/05/11 01:11:07;;;;;;;16.67;10.13;;;17.90;83.30;;;;;;5067801;28;20234;-70
2022/05/11 01:13:37;;;;;;;14.77;10.43;;;17.80;83.20;;;;;;5075437;28;20210;-70
2022/05/11 01:16:05;;;;;;;10.73;9.40;;;17.90;83.30;;;;;;5101063;28;20197;-70
2022/05/11 01:18:32;;;;;;;18.30;10.40;;;17.80;83.20;;;;;;5077336;28;20615;-70
2022/05/11 01:21:03;;;;;;;11.63;10.43;;;17.80;83.10;;;;;;5099643;28;20288;-70
2022/05/11 01:23:36;;;;;;;17.77;10.77;;;17.80;83.10;;;;;;5077105;28;20244;-70
2022/05/11 01:26:04;;;;;;;21.37;10.60;;;17.80;83.10;;;;;;5099840;28;20201;-70
2022/05/11 01:28:31;;;;;;;16.47;10.23;;;17.80;83.00;;;;;;5079374;28;20287;-70
2022/05/11 01:31:17;;;;;;;11.93;10.07;;;17.80;82.90;;;;;;5083070;28;20214;-70
2022/05/11 01:33:49;;;;;;;14.70;9.80;;;17.80;82.80;;;;;;5062927;28;20214;-70
2022/05/11 01:36:31;;;;;;;10.33;9.10;;;17.80;82.70;;;;;;5090599;28;20237;-70
2022/05/11 01:39:07;;;;;;;13.53;9.70;;;17.90;82.80;;;;;;5090546;28;20206;-70
2022/05/11 01:41:43;;;;;;;12.80;9.57;;;17.80;82.60;;;;;;5069091;28;20612;-70
2022/05/11 01:44:13;;;;;;;12.97;9.23;;;17.80;82.60;;;;;;5064109;28;20210;-70
2022/05/11 01:46:45;;;;;;;13.90;10.00;;;17.80;82.60;;;;;;5090652;28;20209;-70
2022/05/11 01:49:12;;;;;;;15.40;9.33;;;17.80;82.60;;;;;;5076594;28;20593;-69
2022/05/11 01:51:40;;;;;;;15.50;9.57;;;17.70;82.60;;;;;;5085933;28;20565;-69
2022/05/11 01:54:07;;;;;;;11.97;9.27;;;17.80;82.60;;;;;;5092039;28;20198;-69
2022/05/11 01:56:34;;;;;;;12.10;10.10;;;17.70;82.60;;;;;;5085530;28;20196;-69
2022/05/11 01:59:02;;;;;;;16.17;10.40;;;17.70;82.50;;;;;;5078974;28;20210;-69
2022/05/11 02:01:30;;;;;;;14.07;9.80;;;17.70;82.50;;;;;;5082631;28;20579;-70
2022/05/11 02:03:57;;;;;;;11.00;9.90;;;17.70;82.70;;;;;;5076303;28;20587;-69
2022/05/11 02:09:10;;;;;;;11.33;9.73;;;17.60;82.90;;;;;;5076341;28;20208;-70
2022/05/11 02:11:37;;;;;;;13.63;9.90;;;17.60;83.10;;;;;;5082922;28;20647;-70
2022/05/11 02:14:05;;;;;;;15.33;10.13;;;17.60;83.10;;;;;;5078076;28;20197;-70
2022/05/11 02:16:32;;;;;;;14.80;10.37;;;17.60;83.20;;;;;;5085972;28;20197;-70
2022/05/11 02:18:59;;;;;;;12.53;10.10;;;17.60;83.20;;;;;;5090783;28;20227;-70
2022/05/11 02:21:26;;;;;;;12.23;9.67;;;17.50;83.20;;;;;;5073653;28;20628;-70
2022/05/11 02:23:53;;;;;;;20.00;10.50;;;17.50;83.30;;;;;;5076609;28;20238;-70
2022/05/11 02:26:21;;;;;;;13.67;9.53;;;17.50;83.40;;;;;;5074644;28;20221;-70
2022/05/11 02:28:51;;;;;;;13.00;9.27;;;17.50;83.50;;;;;;5075685;28;20627;-70
2022/05/11 02:31:18;;;;;;;15.33;10.23;;;17.40;83.50;;;;;;5079915;28;20324;-70
2022/05/11 02:33:46;;;;;;;16.70;10.13;;;17.40;83.70;;;;;;5088900;28;20209;-70
2022/05/11 02:36:13;;;;;;;13.93;10.53;;;17.40;83.70;;;;;;5088903;28;20213;-70
2022/05/11 02:38:42;;;;;;;14.97;10.27;;;17.30;83.80;;;;;;5061053;28;20244;-70
2022/05/11 02:41:09;;;;;;;11.63;10.30;;;17.30;83.90;;;;;;5078848;28;20217;-70
2022/05/11 02:43:36;;;;;;;11.50;9.47;;;17.30;84.10;;;;;;5091243;28;20514;-70
2022/05/11 02:46:04;;;;;;;14.37;9.87;;;17.20;84.20;;;;;;5093960;28;20588;-70
2022/05/11 02:48:33;;;;;;;11.67;10.13;;;17.20;84.40;;;;;;5107199;28;20205;-70
2022/05/11 02:51:03;;;;;;;12.40;9.13;;;17.20;84.40;;;;;;5067572;28;20225;-70
2022/05/11 02:53:32;;;;;;;17.47;10.13;;;17.20;84.40;;;;;;5075151;28;20578;-70
2022/05/11 02:56:00;;;;;;;17.00;10.37;;;17.10;84.50;;;;;;5096826;28;20330;-70
2022/05/11 02:58:32;;;;;;;12.13;10.83;;;17.10;84.60;;;;;;5083157;28;20199;-70
2022/05/11 03:01:01;;;;;;;12.57;10.33;;;17.10;84.70;;;;;;5080799;28;20201;-69
2022/05/11 03:03:33;;;;;;;12.57;9.73;;;17.10;84.80;;;;;;5070604;28;20210;-70
2022/05/11 03:06:05;;;;;;;11.57;10.37;;;17.10;84.80;;;;;;5079626;28;20231;-70
2022/05/11 03:08:35;;;;;;;12.90;9.43;;;17.10;84.70;;;;;;5087960;28;20655;-70
2022/05/11 03:11:03;;;;;;;12.20;10.23;;;17.10;84.80;;;;;;5095199;28;20211;-70
2022/05/11 03:13:32;;;;;;;12.50;9.70;;;17.10;85.00;;;;;;5076945;28;20669;-70
2022/05/11 03:15:59;;;;;;;11.23;10.10;;;17.00;85.00;;;;;;5077722;28;20623;-70
2022/05/11 03:18:26;;;;;;;11.47;10.27;;;17.00;85.00;;;;;;5079370;28;20222;-70
2022/05/11 03:20:58;;;;;;;10.27;9.10;;;17.10;85.00;;;;;;5058947;28;20202;-70
2022/05/11 03:23:27;;;;;;;11.53;9.90;;;17.00;84.90;;;;;;5082337;28;20240;-70
2022/05/11 03:25:55;;;;;;;19.67;10.57;;;17.00;84.90;;;;;;5058113;28;20236;-70
2022/05/11 03:28:22;;;;;;;12.40;10.23;;;17.00;84.80;;;;;;5084233;28;20545;-70
2022/05/11 03:30:50;;;;;;;12.40;10.97;;;17.00;84.80;;;;;;5079270;28;20254;-70
2022/05/11 03:36:04;;;;;;;18.13;10.80;;;17.00;84.80;;;;;;5086127;28;20212;-70
2022/05/11 03:38:31;;;;;;;11.73;10.53;;;16.90;84.70;;;;;;5087628;28;20581;-70
2022/05/11 03:40:59;;;;;;;15.57;10.77;;;16.90;84.80;;;;;;5084273;28;20241;-70
2022/05/11 03:43:26;;;;;;;14.87;9.97;;;16.90;84.90;;;;;;5086563;28;20212;-70
2022/05/11 03:45:53;;;;;;;13.43;10.30;;;16.90;84.90;;;;;;5078521;28;20213;-70
2022/05/11 03:48:20;;;;;;;17.20;10.93;;;16.90;85.00;;;;;;5090263;28;20232;-70
2022/05/11 03:50:47;;;;;;;14.20;10.53;;;16.80;85.20;;;;;;5103304;28;20550;-70
2022/05/11 03:53:14;;;;;;;16.20;10.00;;;16.80;85.30;;;;;;5087934;28;20212;-70
2022/05/11 03:55:41;;;;;;;12.70;10.10;;;16.80;85.30;;;;;;5077039;28;20216;-70
2022/05/11 03:58:08;;;;;;;22.53;10.93;;;16.80;85.40;;;;;;5086782;28;20635;-70
2022/05/11 04:00:35;;;;;;;16.53;10.50;;;16.80;85.50;;;;;;5095657;28;20208;-70
2022/05/11 04:03:02;;;;;;;11.70;9.60;;;16.70;85.50;;;;;;5082099;28;20262;-70
2022/05/11 04:05:32;;;;;;;18.03;11.13;;;16.70;85.60;;;;;;5097119;28;20210;-70
2022/05/11 04:07:59;;;;;;;11.47;9.73;;;16.80;85.60;;;;;;5082417;28;20570;-70
2022/05/11 04:10:27;;;;;;;16.03;10.33;;;16.70;85.60;;;;;;5092671;28;20197;-70
2022/05/11 04:12:54;;;;;;;14.93;9.83;;;16.70;85.60;;;;;;5076632;28;20225;-70
2022/05/11 04:15:28;;;;;;;12.33;9.57;;;16.80;85.70;;;;;;5080559;28;20201;-70
2022/05/11 04:17:56;;;;;;;14.90;10.80;;;16.80;85.40;;;;;;5089703;28;20198;-70
2022/05/11 04:20:23;;;;;;;12.87;10.43;;;16.80;85.50;;;;;;5080408;28;20204;-70
2022/05/11 04:22:51;;;;;;;12.33;10.27;;;16.80;85.50;;;;;;5080830;28;20244;-70
2022/05/11 04:25:18;;;;;;;11.00;9.87;;;16.80;85.50;;;;;;5090823;28;20214;-70
2022/05/11 04:27:48;;;;;;;11.77;9.10;;;16.80;85.80;;;;;;5088497;28;20213;-70
2022/05/11 04:30:17;;;;;;;12.60;9.87;;;16.80;86.20;;;;;;5097937;28;20228;-70
2022/05/11 04:32:44;;;;;;;21.07;9.63;;;16.80;86.30;;;;;;5080103;28;20217;-70
2022/05/11 04:35:12;;;;;;;14.13;10.73;;;16.80;86.40;;;;;;5089620;28;20204;-70
2022/05/11 04:37:39;;;;;;;14.80;10.00;;;16.80;86.50;;;;;;5087478;28;20233;-70
2022/05/11 04:40:08;;;;;;;14.10;10.00;;;16.90;86.40;;;;;;5088728;28;20667;-70
2022/05/11 04:42:43;;;;;;;10.43;9.33;;;16.90;86.40;;;;;;5107665;28;20709;-70
2022/05/11 04:45:11;;;;;;;14.30;8.87;;;17.00;86.40;;;;;;5083106;28;20205;-70
2022/05/11 04:47:38;;;;;;;16.80;9.80;;;17.10;86.50;;;;;;5103695;28;20285;-70
2022/05/11 04:50:07;;;;;;;18.97;9.73;;;17.10;86.60;;;;;;5077434;28;20209;-70
2022/05/11 04:52:34;;;;;;;13.77;9.33;;;17.20;86.60;;;;;;5078453;28;20399;-70
2022/05/11 04:55:03;;;;;;;16.47;10.57;;;17.20;86.60;;;;;;5087299;28;20209;-70
2022/05/11 04:57:31;;;;;;;12.50;9.47;;;17.30;86.50;;;;;;5087120;28;20301;-70
2022/05/11 04:59:58;;;;;;;12.80;9.90;;;17.40;86.40;;;;;;5086017;28;20208;-71
2022/05/11 05:02:27;;;;;;;20.47;10.37;;;17.50;86.00;;;;;;5079505;28;20288;-70
2022/05/11 05:04:59;;;;;;;13.50;10.13;;;17.60;85.50;;;;;;5086846;28;20209;-70
2022/05/11 05:07:26;;;;;;;18.07;10.60;;;17.70;84.90;;;;;;5061370;28;20218;-70
2022/05/11 05:09:53;;;;;;;14.07;10.43;;;17.80;84.70;;;;;;5083178;28;20234;-71
2022/05/11 05:12:20;;;;;;;16.50;10.03;;;17.90;84.50;;;;;;5069470;28;20223;-71
2022/05/11 05:14:47;;;;;;;19.07;9.30;;;18.00;84.40;;;;;;5076123;28;20202;-70
2022/05/11 05:17:16;;;;;;;13.30;9.53;;;18.10;84.50;;;;;;5074548;28;20530;-70
2022/05/11 05:19:45;;;;;;;14.77;10.27;;;18.20;84.50;;;;;;5073758;28;20208;-70
2022/05/11 05:22:13;;;;;;;16.93;11.57;;;18.30;84.60;;;;;;5040565;28;20659;-70
2022/05/11 05:24:41;;;;;;;11.93;10.23;;;18.50;84.40;;;;;;5064027;28;20192;-70
2022/05/11 05:27:11;;;;;;;14.03;11.07;;;18.80;83.60;;;;;;5086714;28;20357;-70
2022/05/11 05:32:25;;;;;;;16.10;9.97;;;19.30;81.70;;;;;;5091042;28;20572;-70
2022/05/11 05:34:52;;;;;;;14.47;10.43;;;19.40;80.90;;;;;;5101637;28;20309;-70
2022/05/11 05:37:20;;;;;;;11.90;9.80;;;19.60;80.40;;;;;;5058920;28;20638;-70
2022/05/11 05:39:47;;;;;;;11.40;10.13;;;19.70;79.80;;;;;;5081796;28;20538;-69
2022/05/11 05:42:19;;;;;;;12.60;10.13;;;19.80;79.70;;;;;;5061190;28;20263;-70
2022/05/11 05:44:47;;;;;;;11.67;10.47;;;19.80;79.70;;;;;;5100809;28;20219;-70
2022/05/11 05:47:15;;;;;;;14.60;10.37;;;19.90;79.80;;;;;;5086685;28;20211;-70
2022/05/11 05:49:43;;;;;;;15.43;11.50;;;20.00;79.80;;;;;;5074661;28;20225;-70
2022/05/11 05:52:20;;;;;;;15.07;11.63;;;20.10;79.60;;;;;;5088934;28;20688;-70
2022/05/11 05:54:50;;;;;;;17.43;12.53;;;20.20;79.20;;;;;;5069751;28;20212;-70
2022/05/11 05:57:18;;;;;;;15.67;13.47;;;20.30;78.80;;;;;;5071872;28;20637;-70
2022/05/11 05:59:46;;;;;;;14.87;13.37;;;20.40;78.50;;;;;;5086638;28;20254;-69
2022/05/11 06:02:14;;;;;;;16.00;12.70;;;20.50;78.20;;;;;;5076414;28;20668;-69
2022/05/11 06:04:46;;;;;;;18.70;13.00;;;20.60;78.10;;;;;;5078479;28;20199;-70
2022/05/11 06:07:14;;;;;;;15.73;12.07;;;20.70;77.80;;;;;;5089691;28;20204;-70
2022/05/11 06:09:41;;;;;;;14.73;12.50;;;20.80;77.40;;;;;;5084325;28;20205;-70
2022/05/11 06:12:11;;;;;;;23.20;13.67;;;20.90;77.40;;;;;;5078314;28;20292;-70
2022/05/11 06:14:39;;;;;;;15.40;13.17;;;21.00;76.90;;;;;;5079347;28;20200;-70
2022/05/11 06:17:23;;;;;;;17.13;13.43;;;21.20;76.70;;;;;;5082784;28;20216;-70
2022/05/11 06:19:52;;;;;;;16.57;13.30;;;21.40;76.10;;;;;;5087663;28;20204;-70
2022/05/11 06:22:21;;;;;;;15.00;12.80;;;21.50;76.30;;;;;;5102977;28;20305;-70
2022/05/11 06:24:48;;;;;;;15.60;12.37;;;21.60;75.10;;;;;;5080990;28;20289;-70
2022/05/11 06:27:23;;;;;;;17.93;12.73;;;21.70;74.40;;;;;;5074819;28;20642;-70
2022/05/11 06:29:56;;;;;;;19.33;13.07;;;21.70;72.80;;;;;;5082484;28;20205;-69
2022/05/11 06:32:24;;;;;;;19.27;13.10;;;21.80;72.90;;;;;;5082597;28;20561;-69
2022/05/11 06:34:52;;;;;;;16.80;13.07;;;21.90;72.60;;;;;;5077495;28;20200;-70
2022/05/11 06:37:21;;;;;;;14.47;12.97;;;21.90;73.00;;;;;;5079099;28;20587;-70
2022/05/11 06:39:48;;;;;;;19.50;13.37;;;22.00;73.10;;;;;;5078598;28;20201;-70
2022/05/11 06:42:16;;;;;;;20.53;14.20;;;22.10;72.50;;;;;;5075481;28;20215;-71
2022/05/11 06:44:43;;;;;;;17.00;14.47;;;22.20;71.00;;;;;;5073369;28;20315;-70
2022/05/11 06:47:10;;;;;;;20.67;14.13;;;22.30;71.20;;;;;;5088856;28;20580;-70
2022/05/11 06:49:37;;;;;;;31.10;14.67;;;22.40;71.50;;;;;;5091265;28;20214;-71
2022/05/11 06:52:05;;;;;;;21.43;14.33;;;22.50;71.70;;;;;;5085815;28;20216;-70
2022/05/11 07:00:04;;;;;;;19.67;14.77;;;22.80;69.10;;;;;;5073355;28;20206;-70
2022/05/11 07:02:34;;;;;;;17.50;13.57;;;22.90;68.70;;;;;;5088745;28;20212;-70
2022/05/11 07:05:01;;;;;;;17.57;14.30;;;23.00;69.80;;;;;;5077041;28;21290;-70
2022/05/11 07:07:28;;;;;;;15.53;13.70;;;23.10;70.00;;;;;;5069407;28;20214;-69
2022/05/11 07:09:55;;;;;;;14.97;13.50;;;23.30;69.90;;;;;;5077323;28;20209;-69
2022/05/11 07:12:32;;;;;;;15.97;13.53;;;23.50;69.00;;;;;;5086768;28;20213;-70
2022/05/11 07:15:00;;;;;;;13.67;11.77;;;23.60;67.30;;;;;;5094050;28;20215;-70
2022/05/11 07:17:39;;;;;;;13.03;11.73;;;23.60;66.70;;;;;;5107037;28;20368;-70
2022/05/11 07:20:12;;;;;;;15.00;12.47;;;23.70;66.00;;;;;;5096207;28;20217;-69
2022/05/11 07:22:39;;;;;;;17.50;12.13;;;23.80;66.30;;;;;;5089234;28;20240;-69
2022/05/11 07:25:08;;;;;;;13.47;12.17;;;23.80;65.90;;;;;;5094127;28;20205;-69
2022/05/11 07:27:36;;;;;;;18.37;12.10;;;23.80;65.90;;;;;;5083116;28;20202;-70
2022/05/11 07:30:06;;;;;;;22.30;12.97;;;23.90;66.30;;;;;;5095417;28;20205;-71
2022/05/11 07:32:34;;;;;;;18.10;12.70;;;23.90;64.10;;;;;;5101670;28;20562;-70
2022/05/11 07:35:01;;;;;;;15.27;13.33;;;23.90;65.00;;;;;;5094360;28;20194;-70
2022/05/11 07:37:28;;;;;;;15.30;13.03;;;24.00;65.30;;;;;;5086190;28;20197;-69
2022/05/11 07:39:56;;;;;;;19.93;13.43;;;24.10;65.60;;;;;;5059566;28;20213;-71
2022/05/11 07:42:24;;;;;;;14.80;12.37;;;24.20;65.70;;;;;;5086270;28;20217;-69
2022/05/11 07:44:51;;;;;;;15.50;12.57;;;24.30;64.90;;;;;;5078311;28;20292;-70
2022/05/11 07:47:20;;;;;;;15.70;12.27;;;24.40;63.40;;;;;;5089109;28;20224;-69
2022/05/11 07:49:48;;;;;;;14.07;11.87;;;24.50;63.40;;;;;;5091911;28;20225;-69
2022/05/11 07:52:15;;;;;;;17.77;12.87;;;24.50;63.80;;;;;;5085012;28;20240;-69
2022/05/11 07:54:42;;;;;;;15.80;13.53;;;24.70;62.90;;;;;;5094487;28;20205;-70
2022/05/11 07:59:57;;;;;;;16.90;12.43;;;24.80;62.10;;;;;;5078942;28;20541;-69
2022/05/11 08:02:32;;;;;;;16.93;11.63;;;24.80;62.00;;;;;;5087788;28;20663;-69
2022/05/11 08:05:06;;;;;;;11.83;10.60;;;24.90;62.60;;;;;;5094239;28;20574;-72
2022/05/11 08:07:40;;;;;;;19.67;11.33;;;25.00;63.00;;;;;;5082640;28;20205;-71
2022/05/11 08:10:16;;;;;;;15.53;10.50;;;25.10;62.40;;;;;;5078171;28;20285;-71
2022/05/11 08:12:43;;;;;;;13.47;11.53;;;25.20;61.10;;;;;;5076664;28;20752;-71
2022/05/11 08:15:13;;;;;;;14.67;10.23;;;25.40;62.10;;;;;;5096477;28;20595;-71
2022/05/11 08:17:42;;;;;;;15.43;11.23;;;25.70;60.80;;;;;;5067183;28;20206;-71
2022/05/11 08:20:15;;;;;;;12.33;10.47;;;25.80;60.10;;;;;;5078314;28;20235;-70
2022/05/11 08:22:44;;;;;;;16.60;10.23;;;25.90;60.40;;;;;;5087741;28;20232;-70
2022/05/11 08:25:13;;;;;;;14.80;9.47;;;26.10;60.50;;;;;;5077519;28;20302;-70
2022/05/11 08:27:41;;;;;;;19.83;10.83;;;26.30;59.10;;;;;;5071524;28;20210;-70
2022/05/11 08:36:09;;;;;;;12.67;9.27;;;26.70;56.70;;;;;;5075781;28;20196;-70
2022/05/11 08:38:41;;;;;;;13.30;10.37;;;26.80;57.40;;;;;;5081349;28;20253;-72
2022/05/11 08:41:18;;;;;;;12.73;11.00;;;26.90;57.00;;;;;;5064771;28;20218;-70
2022/05/11 08:43:47;;;;;;;11.77;10.07;;;27.00;55.60;;;;;;5083800;28;20201;-71
2022/05/11 08:46:33;;;;;;;13.70;11.20;;;27.10;55.50;;;;;;5075885;28;20310;-71
2022/05/11 08:49:10;;;;;;;13.10;9.20;;;27.10;56.20;;;;;;5097298;28;20216;-70
2022/05/11 08:51:39;;;;;;;12.87;8.60;;;27.30;55.90;;;;;;5079050;28;20200;-71
2022/05/11 08:54:14;;;;;;;14.20;9.37;;;27.40;54.90;;;;;;5082063;28;20228;-71
2022/05/11 08:56:43;;;;;;;11.80;7.63;;;27.50;53.00;;;;;;5087989;28;20201;-70
2022/05/11 08:59:19;;;;;;;10.50;7.27;;;27.70;53.50;;;;;;5087658;28;20640;-70
2022/05/11 09:02:12;;;;;;;10.23;7.60;;;27.80;52.70;;;;;;5108475;28;20219;-71
2022/05/11 09:04:54;;;;;;;10.97;7.13;;;27.90;53.50;;;;;;5074274;28;20724;-71
2022/05/11 09:07:21;;;;;;;9.03;7.93;;;28.10;52.90;;;;;;5090786;28;20239;-70
2022/05/11 09:09:52;;;;;;;11.13;9.97;;;28.20;50.90;;;;;;5063073;28;20227;-70
2022/05/11 09:12:20;;;;;;;12.67;9.90;;;28.30;51.70;;;;;;5077514;28;20236;-70
2022/05/11 09:14:52;;;;;;;11.47;9.63;;;28.30;51.30;;;;;;5082238;28;20237;-70
2022/05/11 09:17:31;;;;;;;12.60;9.60;;;28.40;51.30;;;;;;5080466;28;20212;-71
2022/05/11 09:20:08;;;;;;;11.73;9.37;;;28.40;52.70;;;;;;5081359;28;20284;-70
2022/05/11 09:22:59;;;;;;;13.77;9.73;;;28.50;51.60;;;;;;5079057;28;20316;-70
2022/05/11 09:25:30;;;;;;;15.30;8.77;;;28.60;51.50;;;;;;5084978;28;20219;-70
2022/05/11 09:28:24;;;;;;;17.70;8.97;;;28.60;51.10;;;;;;5084374;28;20199;-70
2022/05/11 09:30:57;;;;;;;17.80;8.77;;;28.60;52.10;;;;;;5083797;28;20198;-70
2022/05/11 09:33:59;;;;;;;8.93;8.00;;;28.70;53.10;;;;;;5083172;28;20615;-71
2022/05/11 09:37:40;;;;;;;11.83;7.87;;;28.90;52.50;;;;;;5093566;28;20201;-71
2022/05/11 09:40:14;;;;;;;14.60;8.30;;;29.10;50.60;;;;;;5065794;28;20224;-70
2022/05/11 09:42:49;;;;;;;11.17;8.30;;;29.20;50.70;;;;;;5077572;28;20189;-71
2022/05/11 09:45:40;;;;;;;17.30;8.80;;;29.30;51.00;;;;;;5086024;28;20200;-70
2022/05/11 09:48:23;;;;;;;15.00;8.23;;;29.40;50.20;;;;;;5078935;28;20273;-70
2022/05/11 09:51:14;;;;;;;11.70;8.57;;;29.50;47.80;;;;;;5076127;28;20639;-70
2022/05/11 09:53:54;;;;;;;21.83;10.60;;;29.40;49.30;;;;;;5087675;28;20225;-70
2022/05/11 09:56:50;;;;;;;16.50;9.47;;;29.40;49.00;;;;;;5085397;28;20274;-70
2022/05/11 09:59:37;;;;;;;13.93;8.47;;;29.40;49.60;;;;;;5073593;28;20220;-70
2022/05/11 10:02:23;;;;;;;10.53;8.30;;;29.50;49.90;;;;;;5091965;28;20206;-71
2022/05/11 10:05:02;;;;;;;12.47;8.53;;;29.60;50.00;;;;;;5066479;28;20575;-71
2022/05/11 10:07:37;;;;;;;13.67;8.03;;;29.60;49.30;;;;;;5082668;28;20205;-71
2022/05/11 10:10:28;;;;;;;10.40;7.80;;;29.70;50.10;;;;;;5101120;28;20197;-71
2022/05/11 10:13:17;;;;;;;12.67;8.67;;;29.80;50.70;;;;;;5073010;28;20261;-72
2022/05/11 10:21:56;;;;;;;11.27;8.13;;;30.20;50.50;;;;;;5078550;28;20229;-71
2022/05/11 10:24:53;;;;;;;15.63;7.40;;;30.20;48.70;;;;;;5083571;28;20216;-71
2022/05/11 10:27:44;;;;;;;13.70;8.40;;;30.20;49.70;;;;;;5078601;28;20206;-71
2022/05/11 10:30:25;;;;;;;10.27;7.80;;;30.20;49.40;;;;;;5083097;28;20210;-71
2022/05/11 10:33:20;;;;;;;12.90;8.63;;;30.20;49.40;;;;;;5107042;28;20239;-71
2022/05/11 10:36:03;;;;;;;16.23;8.20;;;30.30;48.50;;;;;;5087656;28;20201;-71
2022/05/11 10:38:40;;;;;;;10.03;7.27;;;30.20;49.40;;;;;;5070308;28;20417;-72
2022/05/11 10:41:45;;;;;;;12.93;8.27;;;30.20;50.00;;;;;;5078779;28;20206;-71
2022/05/11 10:44:52;;;;;;;11.23;6.90;;;30.20;48.40;;;;;;5094721;28;20224;-71
2022/05/11 10:47:28;;;;;;;11.50;6.50;;;30.30;50.70;;;;;;5080589;28;20202;-71
2022/05/11 10:50:02;;;;;;;12.23;7.63;;;30.40;50.30;;;;;;5082358;28;20193;-72
2022/05/11 10:53:03;;;;;;;10.80;6.23;;;30.50;47.90;;;;;;5078889;28;20618;-70
2022/05/11 10:56:14;;;;;;;9.27;5.80;;;30.50;49.20;;;;;;5085943;28;20280;-71
2022/05/11 10:58:59;;;;;;;11.17;6.33;;;30.60;48.40;;;;;;5081424;28;20496;-71
2022/05/11 11:01:44;;;;;;;9.33;6.20;;;30.70;49.00;;;;;;5086828;28;20197;-71
2022/05/11 11:04:27;;;;;;;10.60;5.53;;;30.70;49.10;;;;;;5075852;28;20235;-72
2022/05/11 11:07:13;;;;;;;10.43;6.00;;;30.80;48.20;;;;;;5083421;28;20197;-71
2022/05/11 11:09:53;;;;;;;15.20;6.87;;;30.80;47.90;;;;;;5087529;28;20259;-71
2022/05/11 11:12:33;;;;;;;12.97;5.90;;;30.90;46.50;;;;;;5073473;28;20198;-71
2022/05/11 11:15:06;;;;;;;10.43;5.70;;;30.80;46.40;;;;;;5055659;28;20624;-71
2022/05/11 11:17:33;;;;;;;9.90;5.60;;;30.70;45.20;;;;;;5082743;28;20671;-71
2022/05/11 11:20:05;;;;;;;8.60;5.47;;;30.70;46.10;;;;;;5072609;28;20297;-71
2022/05/11 11:23:06;;;;;;;11.93;6.07;;;30.80;46.20;;;;;;5079497;28;20260;-72
2022/05/11 11:25:55;;;;;;;9.03;5.53;;;30.80;48.10;;;;;;5081211;28;20204;-71
2022/05/11 11:29:00;;;;;;;11.40;5.67;;;30.80;47.00;;;;;;5082269;28;20248;-72
2022/05/11 11:31:28;;;;;;;7.97;5.43;;;30.80;47.00;;;;;;5068396;28;20217;-72
2022/05/11 11:34:04;;;;;;;13.20;5.73;;;30.80;46.90;;;;;;5087645;28;20216;-72
2022/05/11 11:36:35;;;;;;;7.57;5.00;;;30.80;46.80;;;;;;5074580;28;20204;-72
2022/05/11 11:39:05;;;;;;;6.90;5.10;;;30.90;46.80;;;;;;5091079;28;20205;-72
2022/05/11 11:41:52;;;;;;;7.77;5.60;;;31.00;44.30;;;;;;5081503;28;20209;-72
2022/05/11 11:44:26;;;;;;;6.83;5.30;;;31.00;44.00;;;;;;5105763;28;20633;-72
2022/05/11 11:46:53;;;;;;;8.47;5.10;;;31.10;45.00;;;;;;5070405;28;20205;-72
2022/05/11 11:49:27;;;;;;;8.97;5.23;;;31.10;46.30;;;;;;5079554;28;20213;-72
2022/05/11 11:52:01;;;;;;;7.13;5.03;;;31.30;46.70;;;;;;5090520;28;20216;-72
2022/05/11 11:54:38;;;;;;;11.30;4.80;;;31.40;46.70;;;;;;5097497;28;20545;-73
2022/05/11 11:57:16;;;;;;;6.00;5.37;;;31.40;44.60;;;;;;5073696;28;20609;-72
2022/05/11 12:00:12;;;;;;;8.00;5.50;;;31.40;45.00;;;;;;5096091;28;20223;-72
2022/05/11 12:02:42;;;;;;;12.97;5.40;;;31.50;45.00;;;;;;5081230;28;20217;-71
2022/05/11 12:05:28;;;;;;;9.03;5.90;;;31.50;45.50;;;;;;5077670;28;20221;-72
2022/05/11 12:16:46;;;;;;;9.47;5.37;;;31.30;46.00;;;;;;5087675;28;20213;-72
2022/05/11 12:19:15;;;;;;;7.73;4.87;;;31.30;44.90;;;;;;5109436;28;20201;-72
2022/05/11 12:21:57;;;;;;;7.73;4.50;;;31.20;43.40;;;;;;5084069;28;20205;-73
2022/05/11 12:24:36;;;;;;;7.33;4.43;;;31.30;44.10;;;;;;5072085;28;20271;-73
2022/05/11 12:27:12;;;;;;;6.30;3.77;;;31.30;43.90;;;;;;5066339;28;20286;-72
2022/05/11 12:29:55;;;;;;;9.47;4.50;;;31.30;43.80;;;;;;5102105;28;20197;-73
2022/05/11 12:32:23;;;;;;;6.60;4.40;;;31.40;40.80;;;;;;5068377;28;20275;-73
2022/05/11 12:34:51;;;;;;;5.97;3.77;;;31.30;42.70;;;;;;5081119;28;20566;-73
2022/05/11 12:37:27;;;;;;;6.47;3.73;;;31.30;42.70;;;;;;5096857;28;20225;-73
2022/05/11 12:39:55;;;;;;;5.40;3.40;;;31.40;43.00;;;;;;5088659;28;20631;-72
2022/05/11 12:42:33;;;;;;;8.60;3.80;;;31.50;42.10;;;;;;5101108;28;20240;-73
2022/05/11 12:45:01;;;;;;;5.73;3.53;;;31.50;41.20;;;;;;5079084;28;20249;-73
2022/05/11 12:47:28;;;;;;;8.97;4.43;;;31.50;40.70;;;;;;5086306;28;20240;-73
2022/05/11 12:49:55;;;;;;;9.03;3.60;;;31.60;41.20;;;;;;5060836;28;20245;-73
2022/05/11 12:52:26;;;;;;;5.57;4.03;;;31.60;40.90;;;;;;5085632;28;20201;-73
2022/05/11 12:55:03;;;;;;;8.27;4.63;;;31.60;41.50;;;;;;5087940;28;20201;-73
2022/05/11 12:57:44;;;;;;;7.53;4.33;;;31.70;40.80;;;;;;5070015;28;20276;-72
2022/05/11 13:00:18;;;;;;;8.27;3.40;;;31.60;40.10;;;;;;5079311;28;20608;-73
2022/05/11 13:02:48;;;;;;;3.83;3.03;;;31.60;39.20;;;;;;5085780;28;20536;-74
2022/05/11 13:05:18;;;;;;;3.90;3.23;;;31.50;40.30;;;;;;5088986;28;20209;-73
2022/05/11 13:07:54;;;;;;;7.47;3.90;;;31.50;41.20;;;;;;5065884;28;20199;-72
2022/05/11 13:10:28;;;;;;;6.43;2.90;;;31.50;40.60;;;;;;5093472;28;20204;-72
2022/05/11 13:12:57;;;;;;;4.67;3.40;;;31.60;39.20;;;;;;5085080;28;20650;-72
2022/05/11 13:15:41;;;;;;;8.03;3.50;;;31.60;38.50;;;;;;5089083;28;20198;-73
2022/05/11 13:18:13;;;;;;;7.30;3.63;;;31.50;39.00;;;;;;5083827;28;20211;-71
2022/05/11 13:20:43;;;;;;;11.57;4.00;;;31.50;38.50;;;;;;5066317;28;20538;-72
2022/05/11 13:23:33;;;;;;;3.77;3.17;;;31.50;39.00;;;;;;5065738;28;20678;-74
2022/05/11 13:26:05;;;;;;;7.03;3.77;;;31.40;38.10;;;;;;5087106;28;20201;-73
2022/05/11 13:28:42;;;;;;;5.47;3.70;;;31.40;37.80;;;;;;5080322;28;20703;-72
2022/05/11 13:31:28;;;;;;;9.30;3.67;;;31.30;39.00;;;;;;5053874;28;20232;-73
2022/05/11 13:33:56;;;;;;;8.77;3.57;;;31.20;38.60;;;;;;5066306;28;20285;-72
2022/05/11 13:36:25;;;;;;;6.73;3.30;;;31.10;38.90;;;;;;5085241;28;20216;-72
2022/05/11 13:39:17;;;;;;;7.47;3.33;;;31.10;39.40;;;;;;5086618;28;20638;-73